createdAt,value
2022-08-17T08:40:02.656Z,49.06
2022-08-17T08:41:10.623Z,49.68
2022-08-17T08:46:06.810Z,52.49
2022-08-17T08:51:06.743Z,51.86
2022-08-17T08:56:09.627Z,49.77
2022-08-17T09:01:06.148Z,47.55
2022-08-17T09:06:06.148Z,47.15
2022-08-17T09:11:08.835Z,46.23
2022-08-17T09:16:05.484Z,48.72
2022-08-17T09:21:10.465Z,47.08
2022-08-17T09:26:04.894Z,45.53
2022-08-17T09:31:04.419Z,44.16
2022-08-17T09:36:08.073Z,42.91
2022-08-17T09:41:04.050Z,40.82
2022-08-17T09:46:06.449Z,43.65
2022-08-17T09:51:04.803Z,41.04
2022-08-17T09:56:03.090Z,43.04
2022-08-17T10:01:06.176Z,49.01
2022-08-17T10:06:06.590Z,50.93
2022-08-17T10:11:01.398Z,46.37
2022-08-17T10:16:04.036Z,49.45
2022-08-17T10:21:00.486Z,45.47
2022-08-17T10:25:59.881Z,46.52
2022-08-17T10:31:23.336Z,46.08
2022-08-17T10:35:58.853Z,45.97
2022-08-17T10:41:01.513Z,44.12
2022-08-17T10:46:09.450Z,41.88
2022-08-17T10:50:57.082Z,47.05
2022-08-17T10:55:56.792Z,48.21
2022-08-17T11:00:56.649Z,50.07
2022-08-17T11:05:55.487Z,52.48
2022-08-17T11:10:55.450Z,53.50
2022-08-17T11:16:08.399Z,47.67
2022-08-17T11:20:54.214Z,51.12
2022-08-17T11:25:53.940Z,50.44
2022-08-17T11:30:53.418Z,50.24
2022-08-17T11:35:53.105Z,53.13
2022-08-17T11:40:57.991Z,60.76
2022-08-17T11:45:52.837Z,50.60
2022-08-17T11:50:55.866Z,53.43
2022-08-17T11:55:53.086Z,55.52
2022-08-17T12:00:54.851Z,58.70
2022-08-17T12:05:54.275Z,52.56
2022-08-17T12:10:49.864Z,49.80
2022-08-17T12:15:49.553Z,47.47
2022-08-17T12:20:54.602Z,52.32
2022-08-17T12:25:48.566Z,49.32
2022-08-17T12:30:54.754Z,54.64
2022-08-17T12:35:47.353Z,57.61
2022-08-17T12:40:50.146Z,60.24
2022-08-17T12:45:46.652Z,62.26
2022-08-17T12:50:46.088Z,59.23
2022-08-17T12:55:49.164Z,57.19
2022-08-17T13:00:50.693Z,58.91
2022-08-17T13:05:48.182Z,59.03
2022-08-17T13:10:45.080Z,60.65
2022-08-17T13:15:48.042Z,56.14
2022-08-17T13:20:44.602Z,64.59
2022-08-17T13:25:44.565Z,61.39
2022-08-17T13:30:45.024Z,54.72
2022-08-17T13:35:45.877Z,55.87
2022-08-17T13:40:47.189Z,52.33
2022-08-17T13:45:43.793Z,51.21
2022-08-17T13:50:43.883Z,51.94
2022-08-17T13:55:47.546Z,56.17
2022-08-17T14:00:46.393Z,56.21
2022-08-17T14:05:46.584Z,56.09
2022-08-17T14:10:46.193Z,55.75
2022-08-17T14:15:55.709Z,54.34
2022-08-17T14:20:42.636Z,55.69
2022-08-17T14:25:48.690Z,56.74
2022-08-17T14:30:42.876Z,55.02
2022-08-17T14:35:42.059Z,58.45
2022-08-17T14:45:42.128Z,58.33
2022-08-17T14:50:41.631Z,57.99
2022-08-17T14:55:44.883Z,59.43
2022-08-17T15:00:41.300Z,54.96
2022-08-17T15:05:42.013Z,54.29
2022-08-17T15:10:40.975Z,58.46
2022-08-17T15:15:43.699Z,56.47
2022-08-17T15:20:42.788Z,54.00
2022-08-17T15:25:40.243Z,54.81
2022-08-17T15:30:44.567Z,57.15
2022-08-17T15:35:47.003Z,58.82
2022-08-17T15:40:46.331Z,55.97
2022-08-17T15:45:58.589Z,56.87
2022-08-17T15:50:47.752Z,52.48
2022-08-17T15:55:38.183Z,51.60
2022-08-17T16:00:49.368Z,47.67
2022-08-17T16:05:41.066Z,51.30
2022-08-17T16:10:42.262Z,53.66
2022-08-17T16:15:37.156Z,55.62
2022-08-17T16:20:40.298Z,55.34
2022-08-17T16:25:49.213Z,50.89
2022-08-17T16:30:36.745Z,53.19
2022-08-17T16:35:36.376Z,50.37
2022-08-17T16:40:40.788Z,53.27
2022-08-17T16:45:39.434Z,53.64
2022-08-17T16:50:35.746Z,46.90
2022-08-17T16:55:35.941Z,51.77
2022-08-17T17:00:38.458Z,52.74
2022-08-17T17:05:38.094Z,50.88
2022-08-17T17:10:38.558Z,47.79
2022-08-17T17:15:37.175Z,50.85
2022-08-17T17:20:34.414Z,50.25
2022-08-17T17:25:33.015Z,50.33
2022-08-17T17:30:33.132Z,50.95
2022-08-17T17:35:32.879Z,49.87
2022-08-17T17:40:35.632Z,55.21
2022-08-17T17:45:32.102Z,48.49
2022-08-17T17:50:31.839Z,51.02
2022-08-17T17:55:35.111Z,50.26
2022-08-17T18:00:31.334Z,48.20
2022-08-17T18:05:30.794Z,46.66
2022-08-17T18:10:32.983Z,46.73
2022-08-17T18:15:29.299Z,48.20
2022-08-17T18:20:43.559Z,49.59
2022-08-17T18:25:29.283Z,50.41
2022-08-17T18:30:28.631Z,49.61
2022-08-17T18:35:31.016Z,49.46
2022-08-17T18:40:27.614Z,46.91
2022-08-17T18:45:30.164Z,48.64
2022-08-17T18:50:26.601Z,46.79
2022-08-17T18:55:29.221Z,43.54
2022-08-17T19:00:25.400Z,44.40
2022-08-17T19:05:25.033Z,43.73
2022-08-17T19:10:27.518Z,42.59
2022-08-17T19:15:23.852Z,42.58
2022-08-17T19:20:26.440Z,41.51
2022-08-17T19:25:22.865Z,42.58
2022-08-17T19:30:23.225Z,45.05
2022-08-17T19:35:21.803Z,44.75
2022-08-17T19:40:41.857Z,46.59
2022-08-17T19:45:21.197Z,47.87
2022-08-17T19:50:20.404Z,48.40
2022-08-17T19:55:23.051Z,45.60
2022-08-17T20:00:19.681Z,47.80
2022-08-17T20:05:21.488Z,48.99
2022-08-17T20:10:25.586Z,51.66
2022-08-17T20:35:24.717Z,60.86
2022-08-17T20:40:19.546Z,62.23
2022-08-17T20:45:15.027Z,65.62
2022-08-17T20:50:14.331Z,66.61
2022-08-17T20:55:14.439Z,63.87
2022-08-17T21:00:23.890Z,60.10
2022-08-17T21:05:17.651Z,59.06
2022-08-17T21:10:17.216Z,64.72
2022-08-17T21:15:23.945Z,61.61
2022-08-17T21:25:24.048Z,63.95
2022-08-17T21:30:15.299Z,59.83
2022-08-17T21:50:22.223Z,71.22
2022-08-17T21:55:24.949Z,70.87
2022-08-17T22:05:18.847Z,70.31
2022-08-17T22:10:20.761Z,71.42
2022-08-17T22:28:17.548Z,45.71
2022-08-17T22:39:15.490Z,65.16
2022-08-17T22:43:58.746Z,70.40
2022-08-17T22:48:50.490Z,75.54
2022-08-17T22:53:49.805Z,77.16
2022-08-17T22:58:58.819Z,74.83
2022-08-17T23:03:52.025Z,76.05
2022-08-17T23:08:51.856Z,68.35
2022-08-17T23:13:50.889Z,68.09
2022-08-17T23:18:47.423Z,70.93
2022-08-17T23:23:46.708Z,72.12
2022-08-17T23:28:47.620Z,72.26
2022-08-17T23:33:45.432Z,71.85
2022-08-17T23:38:48.881Z,75.71
2022-08-17T23:43:44.854Z,79.30
2022-08-17T23:48:49.659Z,77.48
2022-08-17T23:53:46.725Z,75.49
2022-08-17T23:58:43.638Z,73.38
